Deep River, CT (06417)

6:13 PM EDT on August 27, 2015 (GMT -0400)
St. Lawrence Church Neighborhood | | Change Station
CLOSE
Current Station
Personal Weather Station
Location: Killingworth, CT
Elevation: 465 ft
Nearby Weather Stations

Elev 465 ft 41.36 °N, 72.57 °W | Updated 32 seconds ago

Partly Cloudy
Partly Cloudy
74.6 °F
Feels Like 77 °F
N
0.0
Wind Variable Wind from NNW
Gusts 0.0 mph

Today
High -- | Low -- °F
--% Chance of Precip.
Yesterday
High -- | Low -- °F
Precip. -- in
6:10 AM 7:31 PM
Waxing Gibbous, 95% visible
Pressure 30.04 in
Visibility 10.0 miles
Clouds Few 6500 ft
Heat Index 77 °F
Dew Point 59 °F
Humidity 58%
Rainfall 0.00 in
Snow Depth Not available.
UV 1 out of 12
Pollen 10.00 out of 12
Air Quality Not available.
Flu Activity Not available.
METAR KSNC 272135Z AUTO 33004KT 10SM FEW065 24/13 A3004 RMK AO2
Pressure 30.04 in
Visibility 10.0 miles
Clouds Few 6500 ft
Heat Index 77 °F
Dew Point 59 °F
Humidity 58%
Rainfall 0.00 in
Snow Depth Not available.
UV 1 out of 12
Pollen 10.00 out of 12
Air Quality Not available.
Flu Activity Not available.
METAR KSNC 272135Z AUTO 33004KT 10SM FEW065 24/13 A3004 RMK AO2

10-Day Weather Forecast

×

Almanac

Astronomy

Aug. 27, 2015 Rise Set
Actual Time
Civil Twilight
Nautical Twilight
Astronomical Twilight
Moon
Length of Visible Light
Length of Day
Tomorrow will be .
, % of the Moon is Illuminated

Today's Extremes

State Highs State Lows

Community

WunderPhotos

Upload Photos

1,850,250 photos uploaded!

WunderBlogs® & News

Nearby

Air Quality

  Air Quality AQ Index Pollutant
Not available.

Snow Depth

Station Depth Elevation

Earthquake Activity

City Distance Mag. Time & Date
Minimum magnitude displayed is 2.5.

Coastal Water Temperatures

Place Temperature

Stations

Nearby Weather Stations

Station Location Temp. Windchill Dew Point Humidity Wind Precip. Elev Updated Type